LSXMA Insider Trading

Insider Ownership Percentage: 4.02%
Insider Buying (Last 12 Months): $482,136.00
Insider Selling (Last 12 Months): $1,221,896.78

The Liberty SiriusXM Group Insider Trading History Chart

This chart shows the insider buying and selling history at The Liberty SiriusXM Group by year and by quarter.

Skip ChartChart Data in Insider Trading History Table

The Liberty SiriusXM Group Share Price & Price History

Current Price: $41.48
Price Change: Price Decrease of -0.31 (-0.74%)
As of 12/9/2022 01:00 AM ET

This chart shows the closing price history over time for LSXMA up to the past year.

Skip Chart and Table DataPrice Data in Insider Trading History Table
Days: 30 | 90 | 365

The Liberty SiriusXM Group Insider Trading History

Transaction DateInsider NameTitleBuy/SellNumber of SharesAverage Share PriceTotal TransactionShares Held After TransactionDetails
12/2/2022Brian J. WendlingCAOSell1,045$33.00$34,485.0017,826View SEC Filing Icon  
11/30/2022Brian J. WendlingCAOSell24,218$46.46$1,125,168.283,173View SEC Filing Icon  
11/22/2022Malcolm Ian Grant GilchristDirectorSell916$59.09$54,126.443,940View SEC Filing Icon  
11/7/2022Malcolm Ian Grant GilchristDirectorSell259$31.34$8,117.06965View SEC Filing Icon  
10/13/2022Gamco Investors, Inc. Et AlMajor ShareholderBuy1,000$29.31$29,310.0030,000View SEC Filing Icon  
8/25/2022Gamco Investors, Inc. Et AlMajor ShareholderBuy800$29.18$23,344.001,800View SEC Filing Icon  
8/23/2022Gamco Investors, Inc. Et AlMajor ShareholderBuy1,000$28.94$28,940.001,000View SEC Filing Icon  
8/15/2022Gamco Investors, Inc. Et AlMajor ShareholderBuy300$28.54$8,562.0019,300View SEC Filing Icon  
7/8/2022Gamco Investors, Inc. Et AlMajor ShareholderBuy500$26.26$13,130.0019,000View SEC Filing Icon  
6/27/2022Gamco Investors, Inc. Et AlMajor ShareholderBuy2,000$25.00$50,000.0012,000View SEC Filing Icon  
5/5/2022Gamco Investors, Inc. Et AlMajor ShareholderBuy1,000$26.05$26,050.0017,500View SEC Filing Icon  
4/25/2022Gamco Investors, Inc. Et AlMajor ShareholderBuy1,000$27.10$27,100.0016,500View SEC Filing Icon  
4/20/2022Gamco Investors, Inc. Et AlMajor ShareholderBuy5,000$28.02$140,100.005,000View SEC Filing Icon  
4/12/2022Gamco Investors, Inc. Et AlMajor ShareholderBuy5,000$27.12$135,600.0040,000View SEC Filing Icon  
11/30/2020John C. MaloneMajor ShareholderSell65,935$41.52$2,737,621.20
11/19/2020John C. MaloneMajor ShareholderSell349,584$39.12$13,675,726.08
6/18/2020Albert E. RosenthalerInsiderSell1,900$35.76$67,944.00
6/18/2020Brian J. WendlingCAOSell1,030$35.60$36,668.00
6/18/2020John C. MaloneMajor ShareholderSell500,000$36.21$18,105,000.00
See Full Table

SEC Filings (Institutional Ownership Changes) for The Liberty SiriusXM Group (NASDAQ:LSXMA)

28.05% of The Liberty SiriusXM Group stock is owned by institutions. Institutional ownership can be a sign of analyst confidence in the fundamentals of the stock.

Institutional Buying and Selling by Quarter

This chart shows the instiutional buying and selling at LSXMA by year and by quarter.

Skip Institutional Buying and Selling Chart and Table DataRead Chart Data in Institutional Trading History Table

The Liberty SiriusXM Group Institutional Trading History

Reporting DateHedge FundShares HeldMarket Value% of PortfolioQuarterly Change in SharesOwnership in CompanyDetails
12/8/2022Bank of New York Mellon Corp321,893$12.25M0.0%+23.4%0.099%Search for SEC Filing on Google Icon
11/21/2022California State Teachers Retirement System118,356$4.51M0.0%-3.1%0.036%Search for SEC Filing on Google Icon
11/16/2022One Fin Capital Management LP465,000$17.70M4.6%N/A0.142%Search for SEC Filing on Google Icon
11/16/2022Captrust Financial Advisors10,136$0.39M0.0%+6.6%0.003%Search for SEC Filing on Google Icon
11/16/2022Horizon Kinetics Asset Management LLC376,865$14.35M0.3%-0.6%0.115%Search for SEC Filing on Google Icon
11/16/2022Jane Street Group LLC37,873$1.44M0.0%-17.3%0.012%Search for SEC Filing on Google Icon
11/16/2022Maven Securities LTD78,343$2.98M0.1%-48.0%0.024%Search for SEC Filing on Google Icon
11/16/2022BNP Paribas Arbitrage SNC993,333$37.61M0.1%+226.7%0.304%Search for SEC Filing on Google Icon
11/15/2022Alliancebernstein L.P.1,417,910$53.98M0.0%+1.6%0.434%Search for SEC Filing on Google Icon
11/15/2022State Street Corp1,911,738$72.78M0.0%+4.0%0.586%Search for SEC Filing on Google Icon
11/15/2022Public Employees Retirement System of Ohio37,665$1.43M0.0%+0.8%0.012%Search for SEC Filing on Google Icon
11/15/2022Summit Global Investments19,763$0.75M0.1%N/A0.006%Search for SEC Filing on Google Icon
11/15/2022Teza Capital Management LLC13,155$0.50M0.1%+88.5%0.004%Search for SEC Filing on Google Icon
11/15/2022UBS Asset Management Americas Inc.296,374$11.28M0.0%-31.6%0.091%Search for SEC Filing on Google Icon
11/15/2022Vanguard Group Inc.7,266,853$276.65M0.0%-1.3%2.226%Search for SEC Filing on Google Icon
11/15/2022Prelude Capital Management LLC6,293$0.24M0.0%N/A0.002%Search for SEC Filing on Google Icon
11/15/2022Price T Rowe Associates Inc. MD27,237$1.04M0.0%-6.0%0.008%Search for SEC Filing on Google Icon
11/15/2022Kepos Capital LP54,645$2.08M0.3%N/A0.017%Search for SEC Filing on Google Icon
11/15/2022Marshall Wace LLP55,330$2.11M0.0%-60.5%0.017%Search for SEC Filing on Google Icon
11/15/2022Epoch Investment Partners Inc.2,598,378$98.92M0.6%-0.7%0.796%Search for SEC Filing on Google Icon
11/15/2022Fir Tree Capital Management LP394,504$15.02M0.5%-98.8%0.121%Search for SEC Filing on Google Icon
11/15/2022First Manhattan Co.170,832$5.62M0.0%-8.3%0.052%Search for SEC Filing on Google Icon
11/15/2022Bwcp LP142,253$6.04M3.0%-3.4%0.044%Search for SEC Filing on Google Icon
11/15/2022Bank of New York Mellon Corp321,893$12.25M0.0%+23.4%0.099%Search for SEC Filing on Google Icon
11/15/2022BlackRock Inc.5,702,472$217.09M0.0%-2.6%1.747%Search for SEC Filing on Google Icon
11/15/2022CI Investments Inc.113,254$4.31M0.0%-11.9%0.035%Search for SEC Filing on Google Icon
11/14/2022AlphaCrest Capital Management LLC27,591$1.05M0.1%-69.6%0.008%Search for SEC Filing on Google Icon
11/14/2022Gamco Investors INC. ET AL536,922$20.44M0.2%-8.5%0.164%Search for SEC Filing on Google Icon
11/14/2022Gabelli Funds LLC190,400$7.25M0.1%-3.1%0.058%Search for SEC Filing on Google Icon
11/14/2022Royal Bank of Canada46,063$1.76M0.0%-0.9%0.014%Search for SEC Filing on Google Icon
11/14/2022Allstate Corp18,955$0.72M0.0%N/A0.006%Search for SEC Filing on Google Icon
11/14/2022LMR Partners LLP899,250$34.23M0.6%+23.0%0.275%Search for SEC Filing on Google Icon
11/14/2022Baupost Group LLC MA7,677,656$292.29M5.0%+4.8%2.352%Search for SEC Filing on Google Icon
11/14/2022Point72 Asset Management L.P.182,300$6.94M0.0%+601.2%0.056%Search for SEC Filing on Google Icon
11/14/2022Cubist Systematic Strategies LLC27,911$1.06M0.0%-64.9%0.009%Search for SEC Filing on Google Icon
11/14/2022Aristeia Capital LLC2,486,472$94.66M1.6%+167.3%0.762%Search for SEC Filing on Google Icon
11/14/2022Verition Fund Management LLC131,341$5M0.1%+118.9%0.040%Search for SEC Filing on Google Icon
11/14/2022Ergoteles LLC156,419$5.96M0.2%+15.7%0.048%Search for SEC Filing on Google Icon
11/14/2022Nuveen Asset Management LLC197,195$7.51M0.0%-8.0%0.060%Search for SEC Filing on Google Icon
11/14/2022AXA S.A.96,258$3.67M0.0%N/A0.029%Search for SEC Filing on Google Icon
11/14/2022Healthcare of Ontario Pension Plan Trust Fund33,000$1.26M0.0%-81.6%0.010%Search for SEC Filing on Google Icon
11/14/2022Aviva PLC15,504$0.59M0.0%+3.4%0.005%Search for SEC Filing on Google Icon
11/14/2022FORA Capital LLC10,030$0.38M0.1%N/A0.003%Search for SEC Filing on Google Icon
11/14/2022Royal London Asset Management Ltd.38,217$1.46M0.0%+0.7%0.012%Search for SEC Filing on Google Icon
11/14/2022Hsbc Holdings PLC90,793$3.47M0.0%+788.0%0.028%Search for SEC Filing on Google Icon
11/14/2022Prudential PLC12,666$0.48M0.0%N/A0.004%Search for SEC Filing on Google Icon
11/14/2022Pictet Asset Management SA26,888$1.02M0.0%-1.1%0.008%Search for SEC Filing on Google Icon
11/14/2022Maven Securities LTD78,343$2.98M0.1%-48.0%0.024%Search for SEC Filing on Google Icon
11/14/2022Oppenheimer & Co. Inc.19,405$0.74M0.0%+203.2%0.006%Search for SEC Filing on Google Icon
11/14/2022Brown Advisory Inc.30,384$1.16M0.0%-5.7%0.009%Search for SEC Filing on Google Icon
11/10/2022Envestnet Asset Management Inc.281,461$10.72M0.0%+2.7%0.086%Search for SEC Filing on Google Icon
11/10/2022BRITISH COLUMBIA INVESTMENT MANAGEMENT Corp7,428$0.28M0.0%-15.5%0.002%Search for SEC Filing on Google Icon
11/10/2022Credit Suisse AG86,192$3.28M0.0%-6.1%0.026%Search for SEC Filing on Google Icon
11/10/2022Nomura Asset Management Co. Ltd.19,010$0.72M0.0%-18.9%0.006%Search for SEC Filing on Google Icon
11/10/2022Gabelli Funds LLC190,400$7.25M0.1%-3.1%0.058%Search for SEC Filing on Google Icon
11/10/2022Gamco Investors INC. ET AL536,922$20.44M0.2%-8.5%0.164%Search for SEC Filing on Google Icon
11/10/2022Quadrant Capital Group LLC1,135$43K0.0%-26.6%0.000%Search for SEC Filing on Google Icon
11/10/2022WINTON GROUP Ltd40,638$1.55M0.1%-15.5%0.012%Search for SEC Filing on Google Icon
11/10/2022Redmond Asset Management LLC86,118$3.28M1.2%-2.8%0.026%Search for SEC Filing on Google Icon
11/10/2022Connor Clark & Lunn Investment Management Ltd.8,335$0.32M0.0%-3.5%0.003%Search for SEC Filing on Google Icon
11/10/2022ExodusPoint Capital Management LP145,268$5.53M0.1%-61.1%0.044%Search for SEC Filing on Google Icon
11/10/2022Tower Research Capital LLC TRC 1,107$42K0.0%-81.7%0.000%Search for SEC Filing on Google Icon
11/10/2022Bank of Montreal Can519,435$19.91M0.0%+16.9%0.159%Search for SEC Filing on Google Icon
11/10/2022Korea Investment CORP38,294$1.46M0.0%-29.0%0.012%Search for SEC Filing on Google Icon
11/10/2022UBS Group AG24,928$0.95M0.0%-35.0%0.008%Search for SEC Filing on Google Icon
11/10/2022Mitsubishi UFJ Trust & Banking Corp51,347$1.96M0.0%+18.6%0.016%Search for SEC Filing on Google Icon
11/10/2022Phoenix Holdings Ltd.19,533$0.74M0.0%+17.6%0.006%Search for SEC Filing on Google Icon
11/10/2022Artisan Partners Limited Partnership730,869$27.82M0.0%-6.4%0.224%Search for SEC Filing on Google Icon
11/9/2022Weitz Investment Management Inc.375,000$14.28M0.8%-14.8%0.115%Search for SEC Filing on Google Icon
11/9/2022Kovitz Investment Group Partners LLC32,957$1.26M0.0%-0.7%0.010%Search for SEC Filing on Google Icon
11/9/2022Bessemer Group Inc.658$25K0.0%+338.7%0.000%Search for SEC Filing on Google Icon
11/9/2022Amalgamated Bank7,689$0.29M0.0%-15.8%0.002%Search for SEC Filing on Google Icon
11/9/2022Pecaut & CO.1,000$38K0.0%N/A0.000%Search for SEC Filing on Google Icon
11/8/2022USS Investment Management Ltd18,962$0.72M0.0%-24.4%0.006%Search for SEC Filing on Google Icon
11/8/2022Signaturefd LLC3,645$0.14M0.0%+13.8%0.001%Search for SEC Filing on Google Icon
11/8/2022Treasurer of the State of North Carolina32,159$1.22M0.0%+1.3%0.010%Search for SEC Filing on Google Icon
11/8/2022New York State Common Retirement Fund83,006$3.16M0.0%-4.7%0.025%Search for SEC Filing on Google Icon
11/8/2022Boyar Asset Management Inc.7,684$0.29M0.2%N/A0.002%Search for SEC Filing on Google Icon
11/8/2022Cove Street Capital LLC141,935$5.40M1.5%-6.5%0.043%Search for SEC Filing on Google Icon
11/8/2022KBC Group NV10,858$0.41M0.0%-3.6%0.003%Search for SEC Filing on Google Icon
11/7/2022TD Asset Management Inc.702,658$26.55M0.0%+0.9%0.215%Search for SEC Filing on Google Icon
11/7/2022Quantbot Technologies LP4,945$0.19M0.0%-79.0%0.002%Search for SEC Filing on Google Icon
11/7/2022Arizona State Retirement System20,363$0.78M0.0%-3.7%0.006%Search for SEC Filing on Google Icon
11/4/2022Prudential Financial Inc.20,102$0.76M0.0%-17.8%0.006%Search for SEC Filing on Google Icon
11/4/2022Asset Management One Co. Ltd.48,688$1.85M0.0%+52.9%0.015%Search for SEC Filing on Google Icon
11/4/2022Russell Investments Group Ltd.89,895$3.42M0.0%+1,655.4%0.028%Search for SEC Filing on Google Icon
11/3/2022Creative Planning11,259$0.43M0.0%+17.7%0.003%Search for SEC Filing on Google Icon
11/3/2022Teacher Retirement System of Texas130,509$4.97M0.0%-7.6%0.040%Search for SEC Filing on Google Icon
11/3/2022Barclays PLC70,333$2.68M0.0%-45.6%0.022%Search for SEC Filing on Google Icon
11/2/2022Victory Capital Management Inc.310,680$11.83M0.0%+8.1%0.095%Search for SEC Filing on Google Icon
11/1/2022Great West Life Assurance Co. Can43,875$1.67M0.0%+2.2%0.013%Search for SEC Filing on Google Icon
11/1/2022swisspartners Ltd.60,000$2.28M2.4%+46.3%0.018%Search for SEC Filing on Google Icon
11/1/2022swisspartners Advisors Ltd159,720$6.08M6.0%N/A0.049%Search for SEC Filing on Google Icon
11/1/2022Pacific Global Investment Management Co.5,277$0.20M0.0%-29.5%0.002%Search for SEC Filing on Google Icon
11/1/2022Pinnacle Associates Ltd.449,650$17.12M0.4%-3.0%0.138%Search for SEC Filing on Google Icon
10/31/2022Camelot Portfolios LLC37,512$1.43M1.3%+14.4%0.011%Search for SEC Filing on Google Icon
10/31/2022SG Americas Securities LLC951,527$36.23M0.4%+9.3%0.291%Search for SEC Filing on Google Icon
10/31/2022Aire Advisors LLC20,650$0.79M0.3%+77.0%0.006%Search for SEC Filing on Google Icon
10/28/2022State of New Jersey Common Pension Fund D60,885$2.32M0.0%N/A0.019%Search for SEC Filing on Google Icon
10/27/2022Achmea Investment Management B.V.54,611$2.08M0.1%+5.7%0.017%Search for SEC Filing on Google Icon
Data available starting January 2016

See Full Table
The Liberty SiriusXM Group logo
The Liberty SiriusXM Group, through its subsidiaries, engages in the entertainment business in the United States and Canada. It features music, sports, entertainment, comedy, talk, news, traffic, weather channels, podcast, and infotainment services through proprietary satellite radio systems, as well as streamed through applications for mobile and home devices, and other consumer electronic equipment. It also offers connected vehicle services; a suite of data services that include graphical weather, fuel prices, sports schedules and scores, and movie listings; and traffic information services, which provide information as to road closings, traffic flow and incident data to consumers with compatible in-vehicle navigation systems, and real-time weather services in vehicles, boats, and planes. In addition, the company operates a music, comedy, and podcast streaming platform. Further, it offers ad-supported radio services; Pandora Plus, a radio subscription service; and Pandora Premium, an on-demand subscription service. Additionally, the company distributes satellite radios through automakers and retailers, as well as through its website. As of December 31, 2021, it served approximately 34.0 million subscribers through Sirius XM and approximately 6.4 million subscribers through Pandora. The Liberty SiriusXM Group is headquartered in Englewood, Colorado. The Liberty SiriusXM Group is a subsidiary of Liberty Media Corporation.
Read More on The Liberty SiriusXM Group

Today's Range

Now: $41.48
Low: $41.29
High: $41.92

50 Day Range

MA: $42.05
Low: $38.81
High: $44.78

52 Week Range

Now: $41.48
Low: $34.40
High: $52.62

Volume

464,960 shs

Average Volume

772,319 shs

Market Capitalization

$13.54 billion

P/E Ratio

15.48

Dividend Yield

N/A

Beta

1.11

Who are the company insiders with the largest holdings of The Liberty SiriusXM Group?

The Liberty SiriusXM Group's top insider investors include:
  1. Gamco Investors, Inc Et Al (Major Shareholder)
  2. Brian J Wendling (CAO)
  3. Malcolm Ian Grant Gilchrist (Director)
  4. David E Rapley (Director)
  5. John C Malone (Major Shareholder)
Learn More about top insider investors at The Liberty SiriusXM Group.

Who are the major institutional investors of The Liberty SiriusXM Group?

The Liberty SiriusXM Group's top institutional investors include:
  1. Baupost Group LLC MA — 2.35%
  2. Vanguard Group Inc. — 2.23%
  3. BlackRock Inc. — 1.75%
  4. Epoch Investment Partners Inc. — 0.80%
  5. Aristeia Capital LLC — 0.76%
  6. State Street Corp — 0.59%
Learn More about top institutional investors of The Liberty SiriusXM Group stock.

Which major investors are selling The Liberty SiriusXM Group stock?

During the previous quarter, LSXMA stock was sold by these institutional investors:
  1. Fir Tree Capital Management LP
  2. ExodusPoint Capital Management LP
  3. BlackRock Inc.
  4. Healthcare of Ontario Pension Plan Trust Fund
  5. UBS Asset Management Americas Inc.
  6. Vanguard Group Inc.
  7. Marshall Wace LLP
  8. Maven Securities LTD
Within the previous year, company insiders that have sold The Liberty SiriusXM Group company stock include:
  1. Gamco Investors, Inc Et Al (Major Shareholder)
  2. Brian J Wendling (CAO)
Learn More investors selling The Liberty SiriusXM Group stock.

Which major investors are buying The Liberty SiriusXM Group stock?

In the last quarter, LSXMA stock was purchased by institutional investors including:
  1. Aristeia Capital LLC
  2. BNP Paribas Arbitrage SNC
  3. One Fin Capital Management LP
  4. Baupost Group LLC MA
  5. LMR Partners LLP
  6. swisspartners Advisors Ltd
  7. Point72 Asset Management L.P.
  8. AXA S.A.